createdAt,value
2019-05-14T00:00:06.617Z,6.45
2019-05-14T00:02:34.398Z,6.41
2019-05-14T00:05:02.181Z,6.38
2019-05-14T00:07:31.972Z,6.36
2019-05-14T00:10:01.234Z,6.32
2019-05-14T00:12:28.736Z,6.30
2019-05-14T00:14:56.478Z,6.26
2019-05-14T00:17:24.252Z,6.23
2019-05-14T00:20:05.965Z,6.19
2019-05-14T00:22:21.806Z,6.16
2019-05-14T00:24:51.904Z,6.12
2019-05-14T00:27:21.677Z,6.08
2019-05-14T00:29:48.734Z,6.02
2019-05-14T00:32:16.522Z,5.98
2019-05-14T00:34:44.267Z,5.93
2019-05-14T00:37:11.992Z,5.86
2019-05-14T00:39:41.596Z,5.81
2019-05-14T00:42:09.182Z,5.75
2019-05-14T00:44:49.940Z,5.68
2019-05-14T00:47:06.921Z,5.65
2019-05-14T00:49:34.647Z,5.58
2019-05-14T00:52:02.474Z,5.55
2019-05-14T00:54:32.248Z,5.50
2019-05-14T00:57:01.456Z,5.48
2019-05-14T00:59:29.063Z,5.46
2019-05-14T01:01:56.838Z,5.45
2019-05-14T01:04:24.582Z,5.44
2019-05-14T01:06:52.325Z,5.41
2019-05-14T01:09:21.777Z,5.39
2019-05-14T01:11:51.292Z,5.36
2019-05-14T01:14:21.146Z,5.32
2019-05-14T01:16:51.431Z,5.26
2019-05-14T01:19:18.824Z,5.20
2019-05-14T01:21:46.567Z,5.13
2019-05-14T01:24:14.364Z,5.08
2019-05-14T01:26:43.238Z,5.03
2019-05-14T01:29:12.017Z,4.99
2019-05-14T01:31:41.771Z,4.96
2019-05-14T01:34:11.199Z,4.92
2019-05-14T01:36:38.716Z,4.93
2019-05-14T01:39:06.488Z,4.91
2019-05-14T01:41:34.240Z,4.91
2019-05-14T01:44:01.994Z,4.93
2019-05-14T01:46:31.652Z,4.93
2019-05-14T01:49:01.373Z,4.92
2019-05-14T01:51:28.563Z,4.92
2019-05-14T01:53:56.373Z,4.91
2019-05-14T01:56:24.126Z,4.88
2019-05-14T01:58:52.381Z,4.86
2019-05-14T02:01:21.934Z,4.84
2019-05-14T02:03:51.805Z,4.82
2019-05-14T02:06:21.255Z,4.78
2019-05-14T02:08:48.741Z,4.75
2019-05-14T02:11:16.487Z,4.71
2019-05-14T02:13:44.239Z,4.68
2019-05-14T02:16:13.047Z,4.66
2019-05-14T02:18:41.632Z,4.64
2019-05-14T02:21:11.681Z,4.62
2019-05-14T02:23:38.982Z,4.59
2019-05-14T02:26:06.727Z,4.58
2019-05-14T02:28:34.786Z,4.56
2019-05-14T02:31:03.825Z,4.54
2019-05-14T02:33:31.952Z,4.53
2019-05-14T02:36:00.094Z,4.52
2019-05-14T02:38:29.938Z,4.51
2019-05-14T02:40:59.940Z,4.49
2019-05-14T02:43:29.277Z,4.48
2019-05-14T02:46:09.551Z,4.48
2019-05-14T02:48:28.939Z,4.46
2019-05-14T02:50:55.206Z,4.44
2019-05-14T02:53:22.989Z,4.44
2019-05-14T02:55:50.745Z,4.43
2019-05-14T02:58:20.761Z,4.42
2019-05-14T03:00:49.206Z,4.42
2019-05-14T03:03:19.271Z,4.42
2019-05-14T03:05:49.439Z,4.42
2019-05-14T03:08:19.461Z,4.42
2019-05-14T03:10:45.582Z,4.44
2019-05-14T03:13:13.319Z,4.43
2019-05-14T03:15:41.090Z,4.44
2019-05-14T03:18:09.369Z,4.46
2019-05-14T03:20:39.029Z,4.44
2019-05-14T03:23:09.851Z,4.46
2019-05-14T03:25:36.045Z,4.46
2019-05-14T03:28:03.812Z,4.48
2019-05-14T03:30:32.875Z,4.49
2019-05-14T03:33:02.629Z,4.50
2019-05-14T03:35:41.333Z,4.50
2019-05-14T03:38:00.397Z,4.51
2019-05-14T03:40:29.354Z,4.52
2019-05-14T03:42:59.818Z,4.52
2019-05-14T03:45:29.649Z,4.53
2019-05-14T03:47:58.715Z,4.54
2019-05-14T03:50:29.735Z,4.55
2019-05-14T03:52:59.106Z,4.57
2019-05-14T03:55:29.008Z,4.57
2019-05-14T03:57:59.495Z,4.55
2019-05-14T04:00:30.719Z,4.53
2019-05-14T04:03:00.242Z,4.53
2019-05-14T04:05:29.410Z,4.64
2019-05-14T04:08:00.116Z,4.84
2019-05-14T04:10:29.836Z,5.12
2019-05-14T04:12:59.721Z,5.44
2019-05-14T04:15:25.689Z,5.77
2019-05-14T04:17:53.461Z,6.10
2019-05-14T04:20:21.194Z,6.39
2019-05-14T04:22:50.184Z,6.69
2019-05-14T04:25:19.493Z,6.92
2019-05-14T04:27:49.393Z,6.98
2019-05-14T04:30:23.123Z,7.04
2019-05-14T04:32:50.274Z,7.07
2019-05-14T04:35:20.165Z,7.08
2019-05-14T04:37:49.680Z,7.10
2019-05-14T04:40:18.730Z,7.05
2019-05-14T04:42:45.639Z,7.02
2019-05-14T04:45:13.432Z,6.93
2019-05-14T04:47:42.351Z,6.95
2019-05-14T04:50:10.845Z,6.93
2019-05-14T04:52:40.290Z,6.91
2019-05-14T04:55:09.877Z,6.55
2019-05-14T04:57:39.123Z,6.90
2019-05-14T05:00:11.668Z,6.90
2019-05-14T05:02:39.780Z,6.92
2019-05-14T05:05:09.013Z,6.95
2019-05-14T05:07:35.683Z,6.98
2019-05-14T05:10:05.070Z,7.03
2019-05-14T05:12:32.826Z,7.08
2019-05-14T05:15:00.606Z,7.13
2019-05-14T05:17:42.866Z,7.19
2019-05-14T05:19:59.392Z,7.27
2019-05-14T05:22:28.631Z,7.36
2019-05-14T05:24:58.835Z,7.45
2019-05-14T05:27:25.887Z,7.54
2019-05-14T05:29:53.679Z,7.63
2019-05-14T05:32:21.427Z,7.72
2019-05-14T05:34:50.129Z,7.82
2019-05-14T05:37:19.019Z,7.91
2019-05-14T05:39:48.869Z,8.01
2019-05-14T05:42:18.602Z,8.10
2019-05-14T05:44:48.158Z,8.18
2019-05-14T05:47:15.070Z,8.28
2019-05-14T05:49:42.817Z,8.37
2019-05-14T05:52:10.599Z,8.44
2019-05-14T05:54:38.618Z,8.52
2019-05-14T05:57:09.034Z,8.58
2019-05-14T05:59:35.905Z,8.67
2019-05-14T06:02:03.903Z,8.77
2019-05-14T06:04:31.642Z,8.87
2019-05-14T06:07:02.514Z,8.99
2019-05-14T06:09:28.875Z,9.11
2019-05-14T06:11:59.033Z,9.19
2019-05-14T06:14:26.027Z,9.30
2019-05-14T06:16:53.861Z,9.41
2019-05-14T06:19:21.579Z,9.59
2019-05-14T06:21:49.438Z,9.72
2019-05-14T06:24:19.307Z,9.85
2019-05-14T06:26:48.811Z,9.90
2019-05-14T06:29:18.495Z,9.97
2019-05-14T06:31:45.411Z,10.00
2019-05-14T06:34:13.163Z,10.05
2019-05-14T06:36:41.967Z,10.08
2019-05-14T06:39:09.729Z,10.18
2019-05-14T06:41:42.493Z,10.26
2019-05-14T06:44:09.031Z,10.37
2019-05-14T06:46:36.292Z,10.46
2019-05-14T06:49:04.042Z,10.54
2019-05-14T06:51:31.839Z,10.63
2019-05-14T06:53:59.618Z,10.66
2019-05-14T06:56:28.283Z,10.70
2019-05-14T06:58:58.318Z,10.75
2019-05-14T07:01:25.535Z,10.76
2019-05-14T07:03:53.279Z,10.75
2019-05-14T07:06:21.075Z,10.81
2019-05-14T07:08:52.120Z,10.87
2019-05-14T07:11:19.145Z,10.92
2019-05-14T07:13:49.157Z,10.98
2019-05-14T07:16:16.594Z,11.02
2019-05-14T07:18:49.426Z,11.08
2019-05-14T07:21:13.765Z,11.18
2019-05-14T07:23:41.517Z,11.32
2019-05-14T07:26:09.271Z,11.41
2019-05-14T07:28:42.203Z,11.53
2019-05-14T07:31:06.456Z,11.57
2019-05-14T07:33:34.221Z,11.63
2019-05-14T07:36:02.015Z,11.69
2019-05-14T07:38:30.330Z,11.74
2019-05-14T07:40:58.708Z,11.78
2019-05-14T07:43:28.721Z,11.88
2019-05-14T07:45:58.055Z,11.99
2019-05-14T07:48:25.413Z,12.10
2019-05-14T07:50:53.216Z,12.16
2019-05-14T07:53:34.834Z,12.20
2019-05-14T07:55:50.363Z,12.19
2019-05-14T07:58:19.694Z,12.24
2019-05-14T08:00:49.254Z,12.31
2019-05-14T08:03:19.013Z,12.40
2019-05-14T08:05:48.251Z,12.48
2019-05-14T08:08:18.566Z,12.59
2019-05-14T08:10:45.402Z,12.68
2019-05-14T08:13:13.196Z,12.63
2019-05-14T08:15:40.935Z,12.58
2019-05-14T08:18:08.704Z,12.55
2019-05-14T08:20:37.985Z,12.53
2019-05-14T08:23:06.057Z,12.38
2019-05-14T08:25:33.814Z,12.23
2019-05-14T08:28:01.598Z,12.12
2019-05-14T08:30:29.346Z,12.00
2019-05-14T08:32:58.272Z,11.94
2019-05-14T08:35:26.178Z,11.90
2019-05-14T08:38:05.521Z,11.80
2019-05-14T08:40:23.506Z,11.86
2019-05-14T08:42:51.313Z,11.91
2019-05-14T08:45:19.086Z,11.96
2019-05-14T08:47:48.325Z,12.05
2019-05-14T08:50:18.561Z,12.17
2019-05-14T08:52:48.149Z,12.24
2019-05-14T08:55:15.179Z,12.24
2019-05-14T08:57:43.076Z,11.56
2019-05-14T09:00:14.659Z,12.06
2019-05-14T09:02:41.103Z,12.07
2019-05-14T09:05:10.280Z,12.10
2019-05-14T09:07:38.505Z,12.10
2019-05-14T09:10:08.668Z,12.25
2019-05-14T09:12:38.880Z,12.27
2019-05-14T09:15:06.240Z,12.36
2019-05-14T09:17:33.994Z,12.43
2019-05-14T09:20:07.003Z,12.59
2019-05-14T09:22:31.184Z,12.74
2019-05-14T09:25:00.116Z,12.81
2019-05-14T09:27:29.218Z,12.90
2019-05-14T09:29:58.993Z,13.05
2019-05-14T09:32:28.952Z,13.21
2019-05-14T09:34:56.041Z,13.35
2019-05-14T09:37:23.796Z,13.53
2019-05-14T09:39:51.550Z,13.72
2019-05-14T09:42:20.527Z,13.80
2019-05-14T09:44:49.055Z,13.91
2019-05-14T09:47:18.945Z,14.03
2019-05-14T09:49:48.881Z,14.11
2019-05-14T09:52:18.472Z,14.11
2019-05-14T09:54:45.179Z,14.16
2019-05-14T09:57:12.969Z,14.08
2019-05-14T09:59:40.703Z,14.00
2019-05-14T10:02:09.154Z,13.92
2019-05-14T10:04:39.124Z,13.83
2019-05-14T10:07:08.770Z,13.73
2019-05-14T10:09:38.668Z,13.64
2019-05-14T10:12:05.626Z,13.54
2019-05-14T10:14:33.381Z,13.47
2019-05-14T10:17:01.227Z,13.42
2019-05-14T10:19:29.779Z,13.40
2019-05-14T10:21:58.840Z,13.40
2019-05-14T10:24:28.939Z,13.41
2019-05-14T10:26:58.467Z,13.38
2019-05-14T10:29:25.513Z,13.33
2019-05-14T10:31:53.287Z,13.24
2019-05-14T10:34:21.101Z,13.17
2019-05-14T10:36:49.122Z,13.12
2019-05-14T10:39:19.196Z,13.14
2019-05-14T10:41:46.304Z,13.14
2019-05-14T10:44:14.271Z,13.11
2019-05-14T10:46:42.028Z,13.10
2019-05-14T10:49:19.966Z,13.08
2019-05-14T10:51:39.209Z,13.11
2019-05-14T10:54:21.189Z,13.10
2019-05-14T10:56:36.418Z,13.17
2019-05-14T10:59:04.159Z,13.27
2019-05-14T11:01:31.904Z,13.38
2019-05-14T11:03:59.696Z,13.54
2019-05-14T11:06:29.277Z,13.71
2019-05-14T11:08:56.862Z,13.87
2019-05-14T11:11:24.661Z,14.07
2019-05-14T11:13:52.400Z,14.28
2019-05-14T11:16:20.155Z,14.39
2019-05-14T11:18:49.814Z,14.42
2019-05-14T11:21:25.643Z,14.51
2019-05-14T11:23:48.935Z,14.59
2019-05-14T11:26:18.347Z,14.57
2019-05-14T11:28:45.558Z,14.52
2019-05-14T11:31:13.308Z,14.41
2019-05-14T11:33:41.150Z,14.27
2019-05-14T11:36:09.383Z,14.18
2019-05-14T11:38:37.925Z,14.21
2019-05-14T11:41:05.932Z,14.34
2019-05-14T11:43:33.739Z,14.38
2019-05-14T11:46:03.397Z,14.38
2019-05-14T11:48:31.190Z,14.35
2019-05-14T11:50:59.582Z,14.33
2019-05-14T11:53:27.635Z,14.30
2019-05-14T11:55:55.422Z,14.34
2019-05-14T11:58:23.173Z,14.33
2019-05-14T12:00:50.914Z,14.31
2019-05-14T12:03:19.829Z,14.26
2019-05-14T12:05:49.372Z,14.22
2019-05-14T12:08:18.533Z,14.16
2019-05-14T12:10:46.549Z,14.06
2019-05-14T12:13:14.310Z,13.98
2019-05-14T12:15:42.066Z,13.90
2019-05-14T12:18:10.510Z,13.88
2019-05-14T12:20:39.528Z,13.89
2019-05-14T12:23:08.869Z,13.85
2019-05-14T12:25:36.869Z,13.82
2019-05-14T12:28:04.657Z,13.83
2019-05-14T12:30:32.419Z,13.83
2019-05-14T12:33:00.208Z,13.87
2019-05-14T12:35:29.261Z,13.83
2019-05-14T12:37:58.553Z,13.76
2019-05-14T12:40:28.662Z,13.69
2019-05-14T12:42:58.624Z,13.61
2019-05-14T12:45:25.301Z,13.50
2019-05-14T12:47:53.273Z,13.51
2019-05-14T12:50:21.025Z,13.58
2019-05-14T12:52:48.822Z,13.71
2019-05-14T12:55:19.010Z,13.78
2019-05-14T12:57:48.400Z,13.79
2019-05-14T13:00:15.395Z,13.81
2019-05-14T13:02:43.196Z,13.89
2019-05-14T13:05:10.951Z,14.01
2019-05-14T13:07:41.423Z,14.12
2019-05-14T13:10:09.164Z,14.16
2019-05-14T13:12:39.029Z,14.18
2019-05-14T13:15:08.750Z,14.11
2019-05-14T13:17:38.806Z,14.03
2019-05-14T13:20:13.229Z,13.94
2019-05-14T13:22:42.285Z,13.85
2019-05-14T13:25:05.792Z,13.80
2019-05-14T13:27:33.521Z,13.76
2019-05-14T13:30:01.266Z,13.79
2019-05-14T13:32:29.084Z,13.77
2019-05-14T13:34:59.066Z,13.76
2019-05-14T13:37:28.646Z,13.74
2019-05-14T13:39:55.695Z,13.73
2019-05-14T13:42:23.446Z,13.71
2019-05-14T13:44:51.222Z,13.69
2019-05-14T13:47:18.998Z,13.73
2019-05-14T13:49:48.823Z,13.81
2019-05-14T13:52:18.712Z,13.82
2019-05-14T13:54:45.888Z,13.90
2019-05-14T13:57:13.654Z,13.98
2019-05-14T13:59:44.594Z,13.93
2019-05-14T14:02:11.611Z,13.88
2019-05-14T14:04:39.527Z,13.82
2019-05-14T14:07:09.081Z,13.89
2019-05-14T14:09:39.203Z,13.96
2019-05-14T14:12:08.156Z,13.92
2019-05-14T14:14:38.423Z,13.97
2019-05-14T14:17:05.071Z,14.08
2019-05-14T14:19:32.819Z,14.18
2019-05-14T14:22:00.570Z,14.24
2019-05-14T14:24:30.696Z,14.23
2019-05-14T14:26:58.492Z,14.14
2019-05-14T14:29:26.222Z,14.01
2019-05-14T14:31:53.990Z,13.98
2019-05-14T14:34:21.755Z,13.94
2019-05-14T14:36:50.468Z,13.92
2019-05-14T14:39:19.304Z,13.99
2019-05-14T14:41:48.840Z,14.00
2019-05-14T14:44:18.886Z,13.92
2019-05-14T14:46:48.212Z,13.77
2019-05-14T14:49:15.350Z,13.70
2019-05-14T14:51:45.102Z,13.63
2019-05-14T14:54:15.989Z,13.26
2019-05-14T14:56:42.044Z,13.56
2019-05-14T14:59:09.785Z,13.56
2019-05-14T15:01:40.250Z,13.63
2019-05-14T15:04:13.729Z,13.69
2019-05-14T15:06:39.851Z,13.72
2019-05-14T15:09:06.004Z,13.70
2019-05-14T15:11:34.712Z,13.67
2019-05-14T15:14:02.459Z,13.63
2019-05-14T15:16:30.276Z,13.59
2019-05-14T15:18:58.439Z,13.58
2019-05-14T15:21:29.722Z,13.60
2019-05-14T15:24:07.378Z,13.64
2019-05-14T15:26:28.735Z,13.65
2019-05-14T15:28:55.321Z,13.66
2019-05-14T15:31:23.146Z,13.66
2019-05-14T15:33:51.180Z,13.65
2019-05-14T15:36:19.663Z,13.64
2019-05-14T15:38:48.626Z,13.49
2019-05-14T15:41:20.115Z,13.69
2019-05-14T15:43:46.512Z,13.68
2019-05-14T15:46:14.329Z,13.59
2019-05-14T15:48:42.042Z,13.52
2019-05-14T15:51:11.511Z,13.50
2019-05-14T15:53:40.017Z,13.50
2019-05-14T15:56:08.250Z,13.47
2019-05-14T15:58:38.754Z,13.45
2019-05-14T16:01:05.494Z,13.45
2019-05-14T16:03:33.398Z,13.49
2019-05-14T16:06:01.160Z,13.49
2019-05-14T16:08:29.696Z,13.48
2019-05-14T16:11:00.133Z,13.47
2019-05-14T16:13:28.532Z,13.46
2019-05-14T16:15:56.421Z,13.42
2019-05-14T16:18:24.178Z,13.36
2019-05-14T16:20:52.230Z,13.29
2019-05-14T16:23:20.598Z,13.19
2019-05-14T16:25:48.480Z,13.15
2019-05-14T16:28:19.360Z,13.17
2019-05-14T16:30:45.694Z,13.16
2019-05-14T16:33:13.443Z,13.18
2019-05-14T16:35:42.869Z,13.23
2019-05-14T16:38:10.668Z,13.33
2019-05-14T16:40:39.490Z,13.51
2019-05-14T16:43:07.575Z,13.65
2019-05-14T16:45:35.459Z,13.77
2019-05-14T16:48:03.222Z,13.91
2019-05-14T16:50:30.988Z,14.03
2019-05-14T16:52:59.094Z,14.13
2019-05-14T16:55:30.447Z,14.22
2019-05-14T16:57:58.224Z,14.30
2019-05-14T17:00:29.183Z,14.43
2019-05-14T17:02:55.823Z,14.48
2019-05-14T17:05:23.583Z,14.57
2019-05-14T17:07:51.384Z,14.66
2019-05-14T17:10:19.127Z,14.74
2019-05-14T17:12:53.536Z,14.83
2019-05-14T17:15:18.149Z,14.91
2019-05-14T17:17:48.056Z,14.96
2019-05-14T17:20:15.382Z,15.01
2019-05-14T17:22:43.195Z,15.05
2019-05-14T17:25:25.208Z,15.05
2019-05-14T17:27:40.361Z,14.90
2019-05-14T17:30:08.795Z,14.62
2019-05-14T17:32:39.138Z,14.33
2019-05-14T17:35:06.098Z,14.00
2019-05-14T17:37:33.891Z,13.66
2019-05-14T17:40:01.654Z,13.32
2019-05-14T17:42:29.451Z,12.99
2019-05-14T17:44:58.933Z,12.71
2019-05-14T17:47:28.873Z,12.45
2019-05-14T17:49:56.188Z,12.20
2019-05-14T17:52:23.991Z,11.99
2019-05-14T17:54:51.748Z,11.80
2019-05-14T17:57:24.924Z,11.64
2019-05-14T17:59:49.572Z,11.51
2019-05-14T18:02:19.131Z,11.39
2019-05-14T18:04:48.784Z,11.25
2019-05-14T18:07:18.985Z,11.14
2019-05-14T18:09:45.891Z,11.04
2019-05-14T18:12:13.651Z,10.92
2019-05-14T18:14:41.443Z,10.83
2019-05-14T18:17:09.345Z,10.73
2019-05-14T18:19:37.953Z,10.64
2019-05-14T18:22:05.896Z,10.53
2019-05-14T18:24:33.665Z,10.45
2019-05-14T18:27:01.398Z,10.35
2019-05-14T18:29:29.697Z,10.28
2019-05-14T18:32:00.992Z,10.18
2019-05-14T18:34:28.437Z,10.11
2019-05-14T18:36:56.401Z,10.06
2019-05-14T18:39:24.170Z,9.99
2019-05-14T18:41:51.907Z,9.93
2019-05-14T18:44:21.318Z,9.86
2019-05-14T18:46:49.061Z,9.79
2019-05-14T18:49:19.273Z,9.73
2019-05-14T18:51:46.223Z,9.68
2019-05-14T18:54:13.966Z,9.59
2019-05-14T18:56:41.731Z,9.51
2019-05-14T18:59:13.944Z,9.43
2019-05-14T19:01:41.758Z,9.36
2019-05-14T19:04:09.869Z,9.28
2019-05-14T19:06:38.906Z,9.18
2019-05-14T19:09:09.937Z,9.12
2019-05-14T19:11:38.580Z,9.05
2019-05-14T19:14:05.629Z,9.00
2019-05-14T19:16:34.625Z,8.93
2019-05-14T19:19:03.128Z,8.86
2019-05-14T19:21:31.647Z,8.80
2019-05-14T19:24:01.078Z,8.79
2019-05-14T19:26:36.654Z,8.77
2019-05-14T19:28:59.870Z,8.77
2019-05-14T19:31:28.320Z,8.79
2019-05-14T19:33:56.868Z,8.78
2019-05-14T19:36:25.488Z,8.77
2019-05-14T19:38:53.977Z,8.76
2019-05-14T19:41:23.098Z,8.76
2019-05-14T19:43:51.739Z,8.72
2019-05-14T19:46:20.222Z,8.70
2019-05-14T19:48:48.703Z,8.64
2019-05-14T19:51:18.826Z,8.63
2019-05-14T19:53:48.597Z,8.60
2019-05-14T19:56:16.935Z,8.57
2019-05-14T19:58:44.738Z,8.52
2019-05-14T20:01:14.588Z,8.49
2019-05-14T20:03:42.335Z,8.43
2019-05-14T20:06:10.086Z,8.34
2019-05-14T20:08:38.407Z,8.25
2019-05-14T20:11:06.437Z,8.16
2019-05-14T20:13:34.186Z,8.06
2019-05-14T20:16:05.016Z,7.95
2019-05-14T20:18:32.794Z,7.85
2019-05-14T20:21:03.551Z,7.76
2019-05-14T20:23:31.308Z,7.68
2019-05-14T20:26:01.629Z,7.61
2019-05-14T20:28:28.855Z,7.55
2019-05-14T20:30:58.591Z,7.49
2019-05-14T20:33:26.031Z,7.42
2019-05-14T20:35:53.771Z,7.35
2019-05-14T20:38:21.512Z,7.28
2019-05-14T20:40:50.957Z,7.20
2019-05-14T20:43:18.767Z,7.13
2019-05-14T20:45:48.874Z,7.07
2019-05-14T20:48:15.948Z,7.01
2019-05-14T20:50:43.724Z,6.93
2019-05-14T20:53:11.461Z,6.86
2019-05-14T20:55:39.311Z,6.83
2019-05-14T20:58:08.019Z,6.76
2019-05-14T21:00:35.961Z,6.71
2019-05-14T21:03:04.918Z,6.65
2019-05-14T21:05:32.659Z,6.60
2019-05-14T21:08:00.403Z,6.53
2019-05-14T21:10:29.110Z,6.47
2019-05-14T21:12:58.067Z,6.42
2019-05-14T21:15:28.259Z,6.37
2019-05-14T21:17:55.532Z,6.30
2019-05-14T21:20:23.286Z,6.23
2019-05-14T21:22:51.045Z,6.16
2019-05-14T21:25:18.876Z,6.10
2019-05-14T21:27:51.302Z,6.04
2019-05-14T21:30:16.118Z,5.97
2019-05-14T21:32:43.896Z,5.90
2019-05-14T21:35:11.642Z,5.84
2019-05-14T21:37:39.697Z,5.79
2019-05-14T21:40:09.184Z,5.74
2019-05-14T21:42:38.468Z,5.70
2019-05-14T21:45:07.541Z,5.26
2019-05-14T21:47:35.800Z,5.60
2019-05-14T21:50:04.722Z,5.56
2019-05-14T21:52:32.469Z,5.52
2019-05-14T21:55:00.250Z,5.48
2019-05-14T21:57:28.385Z,5.44
2019-05-14T21:59:56.249Z,5.39
2019-05-14T22:02:27.488Z,5.33
2019-05-14T22:04:54.493Z,5.28
2019-05-14T22:07:22.256Z,5.23
2019-05-14T22:09:50.042Z,5.17
2019-05-14T22:12:20.362Z,5.10
2019-05-14T22:14:48.164Z,5.08
2019-05-14T22:17:15.982Z,5.03
2019-05-14T22:19:43.723Z,5.00
2019-05-14T22:22:11.460Z,4.96
2019-05-14T22:24:39.244Z,4.92
2019-05-14T22:27:09.190Z,4.88
2019-05-14T22:29:36.395Z,4.84
2019-05-14T22:32:04.165Z,4.81
2019-05-14T22:34:31.902Z,4.79
2019-05-14T22:36:59.649Z,4.75
2019-05-14T22:39:29.139Z,4.73
2019-05-14T22:42:00.028Z,4.71
2019-05-14T22:44:28.147Z,4.68
2019-05-14T22:46:58.619Z,4.66
2019-05-14T22:49:25.443Z,4.64
2019-05-14T22:51:53.173Z,4.62
2019-05-14T22:54:21.102Z,4.59
2019-05-14T22:56:48.821Z,4.54
2019-05-14T22:59:20.337Z,4.52
2019-05-14T23:01:47.997Z,4.49
2019-05-14T23:04:15.373Z,4.46
2019-05-14T23:06:43.275Z,4.42
2019-05-14T23:09:11.058Z,4.37
2019-05-14T23:11:38.853Z,4.32
2019-05-14T23:14:06.563Z,4.25
2019-05-14T23:16:40.987Z,4.21
2019-05-14T23:19:03.720Z,4.16
2019-05-14T23:21:31.471Z,4.08
2019-05-14T23:23:59.266Z,4.03
2019-05-14T23:26:28.528Z,3.97
2019-05-14T23:28:58.596Z,3.92
2019-05-14T23:31:26.012Z,3.87
2019-05-14T23:33:53.769Z,3.85
2019-05-14T23:36:21.537Z,3.82
2019-05-14T23:38:49.390Z,3.78
2019-05-14T23:41:17.228Z,3.77
2019-05-14T23:43:44.975Z,3.73
2019-05-14T23:46:12.783Z,3.70
2019-05-14T23:48:40.523Z,3.68
2019-05-14T23:51:08.392Z,3.65
2019-05-14T23:53:38.823Z,3.61
2019-05-14T23:56:05.537Z,3.59
2019-05-14T23:58:33.287Z,3.57
